createdAt,value
2024-03-31T00:01:06.750Z,9.26
2024-03-31T00:03:34.158Z,9.32
2024-03-31T00:06:00.810Z,9.35
2024-03-31T00:08:27.422Z,9.37
2024-03-31T00:11:01.574Z,9.42
2024-03-31T00:13:31.021Z,9.44
2024-03-31T00:15:57.726Z,9.44
2024-03-31T00:18:24.419Z,9.38
2024-03-31T00:20:59.938Z,9.35
2024-03-31T00:23:26.625Z,9.29
2024-03-31T00:26:00.051Z,9.33
2024-03-31T00:28:27.495Z,9.33
2024-03-31T00:30:57.736Z,9.33
2024-03-31T00:33:25.699Z,9.25
2024-03-31T00:35:57.831Z,9.24
2024-03-31T00:38:25.723Z,9.18
2024-03-31T00:40:52.800Z,9.11
2024-03-31T00:43:19.861Z,9.10
2024-03-31T00:45:46.644Z,9.13
2024-03-31T00:48:13.389Z,9.19
2024-03-31T00:50:40.118Z,9.24
2024-03-31T00:53:06.860Z,9.29
2024-03-31T00:55:33.898Z,9.36
2024-03-31T00:58:00.901Z,9.35
2024-03-31T01:00:28.137Z,9.40
2024-03-31T01:02:55.020Z,9.44
2024-03-31T01:05:21.678Z,9.51
2024-03-31T01:07:48.436Z,9.57
2024-03-31T01:10:15.329Z,9.55
2024-03-31T01:12:42.120Z,9.53
2024-03-31T01:15:08.944Z,9.56
2024-03-31T01:17:35.785Z,9.58
2024-03-31T01:20:02.670Z,9.57
2024-03-31T01:22:30.050Z,9.63
2024-03-31T01:24:56.699Z,9.66
2024-03-31T01:27:23.347Z,9.67
2024-03-31T01:29:49.953Z,9.68
2024-03-31T01:32:16.713Z,9.67
2024-03-31T01:34:45.620Z,9.66
2024-03-31T01:37:12.294Z,9.66
2024-03-31T01:39:39.015Z,9.64
2024-03-31T01:42:05.938Z,9.62
2024-03-31T01:44:32.593Z,9.63
2024-03-31T01:46:59.238Z,9.66
2024-03-31T01:49:25.962Z,9.68
2024-03-31T01:51:52.603Z,9.73
2024-03-31T01:54:19.197Z,9.76
2024-03-31T01:56:46.544Z,9.77
2024-03-31T01:59:13.141Z,9.82
2024-03-31T02:01:39.791Z,9.83
2024-03-31T02:04:06.467Z,9.85
2024-03-31T02:06:33.117Z,9.86
2024-03-31T02:08:59.738Z,9.86
2024-03-31T02:11:26.384Z,9.88
2024-03-31T02:13:53.065Z,9.89
2024-03-31T02:16:22.015Z,9.90
2024-03-31T02:18:48.676Z,9.89
2024-03-31T02:21:15.371Z,9.87
2024-03-31T02:23:42.023Z,9.91
2024-03-31T02:26:08.673Z,9.90
2024-03-31T02:28:36.592Z,9.92
2024-03-31T02:31:03.925Z,9.91
2024-03-31T02:33:30.546Z,9.95
2024-03-31T02:35:57.222Z,9.96
2024-03-31T02:38:23.871Z,9.92
2024-03-31T02:40:50.501Z,9.89
2024-03-31T02:43:17.124Z,9.91
2024-03-31T02:45:43.829Z,9.96
2024-03-31T02:48:10.467Z,9.97
2024-03-31T02:50:37.190Z,9.92
2024-03-31T02:53:03.942Z,9.92
2024-03-31T02:55:30.575Z,9.95
2024-03-31T02:57:57.192Z,9.95
2024-03-31T03:00:23.908Z,9.96
2024-03-31T03:02:50.797Z,9.97
2024-03-31T03:05:17.502Z,9.96
2024-03-31T03:07:44.133Z,9.93
2024-03-31T03:10:10.802Z,9.94
2024-03-31T03:12:37.546Z,9.94
2024-03-31T03:15:04.605Z,9.95
2024-03-31T03:17:31.236Z,9.96
2024-03-31T03:19:58.092Z,9.96
2024-03-31T03:22:24.924Z,9.99
2024-03-31T03:24:55.267Z,10.03
2024-03-31T03:27:21.984Z,10.03
2024-03-31T03:29:48.672Z,9.99
2024-03-31T03:32:15.342Z,10.01
2024-03-31T03:34:41.940Z,10.04
2024-03-31T03:37:08.558Z,10.02
2024-03-31T03:39:36.453Z,10.02
2024-03-31T03:42:06.679Z,10.00
2024-03-31T03:44:33.292Z,9.97
2024-03-31T03:46:59.944Z,9.99
2024-03-31T03:49:26.605Z,9.98
2024-03-31T03:51:53.312Z,9.97
2024-03-31T03:54:19.912Z,9.95
2024-03-31T03:56:46.606Z,9.96
2024-03-31T03:59:13.774Z,9.93
2024-03-31T04:01:40.845Z,9.92
2024-03-31T04:04:07.483Z,9.88
2024-03-31T04:06:34.100Z,9.87
2024-03-31T04:09:00.708Z,9.87
2024-03-31T04:11:27.352Z,9.84
2024-03-31T04:13:53.976Z,9.84
2024-03-31T04:16:20.631Z,9.82
2024-03-31T04:18:47.233Z,9.79
2024-03-31T04:21:13.903Z,9.75
2024-03-31T04:23:41.191Z,9.76
2024-03-31T04:26:07.819Z,9.75
2024-03-31T04:28:34.413Z,9.76
2024-03-31T04:31:04.462Z,9.77
2024-03-31T04:33:34.070Z,9.74
2024-03-31T04:36:01.490Z,9.74
2024-03-31T04:38:28.111Z,9.74
2024-03-31T04:40:56.966Z,9.73
2024-03-31T04:43:24.289Z,9.70
2024-03-31T04:46:08.886Z,9.75
2024-03-31T04:48:36.732Z,9.70
2024-03-31T04:51:07.651Z,9.74
2024-03-31T04:53:35.630Z,9.75
2024-03-31T04:56:03.117Z,9.75
2024-03-31T04:58:30.441Z,9.76
2024-03-31T05:00:57.524Z,9.76
2024-03-31T05:03:25.060Z,9.76
2024-03-31T05:05:52.168Z,9.81
2024-03-31T05:08:18.828Z,9.84
2024-03-31T05:10:55.614Z,9.88
2024-03-31T05:13:24.065Z,9.83
2024-03-31T05:16:03.140Z,9.87
2024-03-31T05:18:30.024Z,9.79
2024-03-31T05:21:06.032Z,9.83
2024-03-31T05:23:33.218Z,9.79
2024-03-31T05:26:00.959Z,9.78
2024-03-31T05:28:28.802Z,9.80
2024-03-31T05:30:55.876Z,9.83
2024-03-31T05:33:22.659Z,9.86
2024-03-31T05:35:49.566Z,9.84
2024-03-31T05:38:17.360Z,9.87
2024-03-31T05:40:45.737Z,9.85
2024-03-31T05:43:13.049Z,9.84
2024-03-31T05:45:41.370Z,9.86
2024-03-31T05:48:09.723Z,9.86
2024-03-31T05:50:36.499Z,9.86
2024-03-31T05:53:03.806Z,9.89
2024-03-31T05:55:30.498Z,9.90
2024-03-31T05:57:57.529Z,9.93
2024-03-31T06:00:25.267Z,9.96
2024-03-31T06:02:52.236Z,9.98
2024-03-31T06:05:19.151Z,9.94
2024-03-31T06:07:50.413Z,9.98
2024-03-31T06:10:17.874Z,9.94
2024-03-31T06:12:44.546Z,9.93
2024-03-31T06:15:11.457Z,9.95
2024-03-31T06:17:40.688Z,9.96
2024-03-31T06:20:08.690Z,9.97
2024-03-31T06:22:42.058Z,10.01
2024-03-31T06:25:09.228Z,9.99
2024-03-31T06:27:36.101Z,10.04
2024-03-31T06:30:04.110Z,10.07
2024-03-31T06:32:30.752Z,10.05
2024-03-31T06:34:57.617Z,10.04
2024-03-31T06:37:24.541Z,10.05
2024-03-31T06:39:51.151Z,10.09
2024-03-31T06:42:18.442Z,10.09
2024-03-31T06:44:45.259Z,10.07
2024-03-31T06:47:12.203Z,10.10
2024-03-31T06:49:39.497Z,10.13
2024-03-31T06:52:06.317Z,10.14
2024-03-31T06:54:33.008Z,10.21
2024-03-31T06:56:59.623Z,10.30
2024-03-31T06:59:26.323Z,10.35
2024-03-31T07:01:52.938Z,10.37
2024-03-31T07:04:19.585Z,10.41
2024-03-31T07:06:47.010Z,10.46
2024-03-31T07:09:13.642Z,10.50
2024-03-31T07:11:40.368Z,10.53
2024-03-31T07:14:07.034Z,10.53
2024-03-31T07:16:33.698Z,10.56
2024-03-31T07:19:00.484Z,10.57
2024-03-31T07:21:27.207Z,10.64
2024-03-31T07:23:53.942Z,10.71
2024-03-31T07:26:20.640Z,10.81
2024-03-31T07:28:47.278Z,10.84
2024-03-31T07:31:13.906Z,10.95
2024-03-31T07:33:40.521Z,11.06
2024-03-31T07:36:07.231Z,11.13
2024-03-31T07:38:33.927Z,11.18
2024-03-31T07:41:00.563Z,11.21
2024-03-31T07:43:28.459Z,11.28
2024-03-31T07:45:55.134Z,11.34
2024-03-31T07:48:21.761Z,11.31
2024-03-31T07:50:48.411Z,11.32
2024-03-31T07:53:15.053Z,11.27
2024-03-31T07:55:41.899Z,11.28
2024-03-31T07:58:08.550Z,11.29
2024-03-31T08:00:35.325Z,11.30
2024-03-31T08:03:01.983Z,11.32
2024-03-31T08:05:28.760Z,11.31
2024-03-31T08:07:56.061Z,11.35
2024-03-31T08:10:22.674Z,11.42
2024-03-31T08:12:49.383Z,11.44
2024-03-31T08:15:16.089Z,11.49
2024-03-31T08:17:42.691Z,11.57
2024-03-31T08:20:09.820Z,11.65
2024-03-31T08:22:36.423Z,11.74
2024-03-31T08:25:03.265Z,11.82
2024-03-31T08:27:29.940Z,11.90
2024-03-31T08:29:56.612Z,12.03
2024-03-31T08:32:23.334Z,12.09
2024-03-31T08:34:51.437Z,12.19
2024-03-31T08:37:18.131Z,12.16
2024-03-31T08:39:45.678Z,12.17
2024-03-31T08:42:38.121Z,12.19
2024-03-31T08:45:06.535Z,12.23
2024-03-31T08:47:35.585Z,12.27
2024-03-31T08:50:02.314Z,12.27
2024-03-31T08:52:29.539Z,12.25
2024-03-31T08:54:57.881Z,12.42
2024-03-31T08:57:24.825Z,12.61
2024-03-31T08:59:51.526Z,12.82
2024-03-31T09:02:23.631Z,13.06
2024-03-31T09:04:51.288Z,13.18
2024-03-31T09:07:18.058Z,13.45
2024-03-31T09:09:44.781Z,13.56
2024-03-31T09:12:12.392Z,13.62
2024-03-31T09:14:40.089Z,13.60
2024-03-31T09:17:11.003Z,13.63
2024-03-31T09:19:38.755Z,13.60
2024-03-31T09:22:05.747Z,13.48
2024-03-31T09:24:33.638Z,13.44
2024-03-31T09:27:01.438Z,13.43
2024-03-31T09:29:28.895Z,13.51
2024-03-31T09:32:16.036Z,13.63
2024-03-31T09:34:43.917Z,13.64
2024-03-31T09:37:11.828Z,13.53
2024-03-31T09:39:39.368Z,13.63
2024-03-31T09:42:07.747Z,13.79
2024-03-31T09:44:37.757Z,13.92
2024-03-31T09:47:16.145Z,14.14
2024-03-31T09:50:00.243Z,14.51
2024-03-31T09:52:32.356Z,14.87
2024-03-31T09:55:08.106Z,15.01
2024-03-31T09:57:42.282Z,15.19
2024-03-31T10:00:14.623Z,15.18
2024-03-31T10:02:47.476Z,15.51
2024-03-31T10:05:21.159Z,15.99
2024-03-31T10:07:48.710Z,16.28
2024-03-31T10:10:16.648Z,16.82
2024-03-31T10:12:45.395Z,17.30
2024-03-31T10:15:16.375Z,17.53
2024-03-31T10:17:46.123Z,17.81
2024-03-31T10:20:15.429Z,17.87
2024-03-31T10:22:44.312Z,17.75
2024-03-31T10:25:11.657Z,17.85
2024-03-31T10:27:42.322Z,18.07
2024-03-31T10:30:10.244Z,18.09
2024-03-31T10:32:38.074Z,18.07
2024-03-31T10:35:06.211Z,18.56
2024-03-31T10:37:33.943Z,18.82
2024-03-31T10:40:04.207Z,19.07
2024-03-31T10:42:32.092Z,18.98
2024-03-31T10:44:58.750Z,18.47
2024-03-31T10:47:25.681Z,18.34
2024-03-31T10:50:04.057Z,18.85
2024-03-31T10:52:33.682Z,18.59
2024-03-31T10:55:01.143Z,18.98
2024-03-31T10:57:41.764Z,19.37
2024-03-31T11:00:10.517Z,19.32
2024-03-31T11:02:40.855Z,18.79
2024-03-31T11:05:09.174Z,18.04
2024-03-31T11:07:37.115Z,17.63
2024-03-31T11:10:07.081Z,17.45
2024-03-31T11:12:33.854Z,18.18
2024-03-31T11:15:01.011Z,18.40
2024-03-31T11:17:28.354Z,18.18
2024-03-31T11:19:58.928Z,18.01
2024-03-31T11:22:26.965Z,17.67
2024-03-31T11:24:53.762Z,17.87
2024-03-31T11:27:21.016Z,18.53
2024-03-31T11:29:48.005Z,18.70
2024-03-31T11:32:18.139Z,19.27
2024-03-31T11:34:48.136Z,19.50
2024-03-31T11:37:15.603Z,19.79
2024-03-31T11:39:42.342Z,19.91
2024-03-31T11:42:10.013Z,20.33
2024-03-31T11:44:37.775Z,20.66
2024-03-31T11:47:05.310Z,20.55
2024-03-31T11:49:35.186Z,21.00
2024-03-31T11:52:02.601Z,20.95
2024-03-31T11:54:29.940Z,20.96
2024-03-31T11:56:57.015Z,20.68
2024-03-31T11:59:23.968Z,20.28
2024-03-31T12:02:02.007Z,20.34
2024-03-31T12:04:30.156Z,20.34
2024-03-31T12:06:56.893Z,20.55
2024-03-31T12:09:24.728Z,20.84
2024-03-31T12:11:51.877Z,20.65
2024-03-31T12:14:19.434Z,20.40
2024-03-31T12:16:46.521Z,20.83
2024-03-31T12:19:14.451Z,21.34
2024-03-31T12:21:41.845Z,20.59
2024-03-31T12:24:10.372Z,19.98
2024-03-31T12:26:37.692Z,19.72
2024-03-31T12:29:05.191Z,19.50
2024-03-31T12:31:32.197Z,19.15
2024-03-31T12:33:58.916Z,18.92
2024-03-31T12:36:26.985Z,18.81
2024-03-31T12:38:53.777Z,18.61
2024-03-31T12:41:22.372Z,18.56
2024-03-31T12:43:50.351Z,18.46
2024-03-31T12:46:17.300Z,18.50
2024-03-31T12:48:47.194Z,18.46
2024-03-31T12:51:24.180Z,18.54
2024-03-31T12:53:51.493Z,18.40
2024-03-31T12:56:19.074Z,18.41
2024-03-31T12:58:48.599Z,18.55
2024-03-31T13:01:22.231Z,18.56
2024-03-31T13:03:49.448Z,18.44
2024-03-31T13:06:16.364Z,18.28
2024-03-31T13:08:47.441Z,18.20
2024-03-31T13:11:15.748Z,18.01
2024-03-31T13:13:42.565Z,17.90
2024-03-31T13:16:09.710Z,17.81
2024-03-31T13:18:36.536Z,17.77
2024-03-31T13:21:03.609Z,17.68
2024-03-31T13:23:30.529Z,17.51
2024-03-31T13:25:57.194Z,17.37
2024-03-31T13:28:29.742Z,17.15
2024-03-31T13:30:57.888Z,16.62
2024-03-31T13:33:24.631Z,16.49
2024-03-31T13:35:51.250Z,16.50
2024-03-31T13:38:17.933Z,16.68
2024-03-31T13:40:44.869Z,16.95
2024-03-31T13:43:11.651Z,17.19
2024-03-31T13:45:38.300Z,17.44
2024-03-31T13:48:05.186Z,17.55
2024-03-31T13:50:31.849Z,17.49
2024-03-31T13:52:58.469Z,17.50
2024-03-31T13:55:25.193Z,17.64
2024-03-31T13:57:52.798Z,17.61
2024-03-31T14:00:19.543Z,17.66
2024-03-31T14:02:46.137Z,17.65
2024-03-31T14:05:12.761Z,17.61
2024-03-31T14:07:39.456Z,17.56
2024-03-31T14:10:09.129Z,17.51
2024-03-31T14:12:36.937Z,17.48
2024-03-31T14:15:04.814Z,17.58
2024-03-31T14:17:33.742Z,17.69
2024-03-31T14:20:01.530Z,17.77
2024-03-31T14:22:28.169Z,17.80
2024-03-31T14:24:54.808Z,17.87
2024-03-31T14:27:21.490Z,17.96
2024-03-31T14:29:48.099Z,18.03
2024-03-31T14:32:14.708Z,18.03
2024-03-31T14:34:41.365Z,17.98
2024-03-31T14:37:08.008Z,17.97
2024-03-31T14:39:34.677Z,17.93
2024-03-31T14:42:01.284Z,17.95
2024-03-31T14:44:28.021Z,17.97
2024-03-31T14:46:54.655Z,17.87
2024-03-31T14:49:21.808Z,17.92
2024-03-31T14:51:48.453Z,17.89
2024-03-31T14:54:15.188Z,17.71
2024-03-31T14:56:41.803Z,17.58
2024-03-31T14:59:08.812Z,17.60
2024-03-31T15:01:35.448Z,17.63
2024-03-31T15:04:02.130Z,17.58
2024-03-31T15:06:28.794Z,17.56
2024-03-31T15:08:58.346Z,17.60
2024-03-31T15:11:25.234Z,17.65
2024-03-31T15:13:52.007Z,17.71
2024-03-31T15:16:18.618Z,17.86
2024-03-31T15:18:45.300Z,18.01
2024-03-31T15:21:11.924Z,18.25
2024-03-31T15:23:38.548Z,18.47
2024-03-31T15:26:05.204Z,18.89
2024-03-31T15:28:31.819Z,19.10
2024-03-31T15:30:58.528Z,18.98
2024-03-31T15:33:25.227Z,18.94
2024-03-31T15:35:51.852Z,18.86
2024-03-31T15:38:18.554Z,18.70
2024-03-31T15:40:45.293Z,18.48
2024-03-31T15:43:11.904Z,18.38
2024-03-31T15:45:41.419Z,18.31
2024-03-31T15:48:09.825Z,18.24
2024-03-31T15:50:36.474Z,18.16
2024-03-31T15:53:03.132Z,18.03
2024-03-31T15:55:29.734Z,17.97
2024-03-31T15:57:56.368Z,17.92
2024-03-31T16:00:22.983Z,17.88
2024-03-31T16:02:49.616Z,17.81
2024-03-31T16:05:16.313Z,17.74
2024-03-31T16:07:42.928Z,17.67
2024-03-31T16:10:09.941Z,17.66
2024-03-31T16:12:36.627Z,17.66
2024-03-31T16:15:03.388Z,17.59
2024-03-31T16:17:30.034Z,17.50
2024-03-31T16:19:56.664Z,17.46
2024-03-31T16:22:23.303Z,17.39
2024-03-31T16:24:49.990Z,17.33
2024-03-31T16:27:16.672Z,17.23
2024-03-31T16:29:43.329Z,17.14
2024-03-31T16:32:09.946Z,17.02
2024-03-31T16:34:36.648Z,16.88
2024-03-31T16:37:03.281Z,16.73
2024-03-31T16:39:29.975Z,16.57
2024-03-31T16:41:56.680Z,16.27
2024-03-31T16:44:23.289Z,15.93
2024-03-31T16:46:49.970Z,15.36
2024-03-31T16:49:16.596Z,14.94
2024-03-31T16:51:43.230Z,14.72
2024-03-31T16:54:09.877Z,14.44
2024-03-31T16:56:36.578Z,14.24
2024-03-31T16:59:06.036Z,14.16
2024-03-31T17:01:32.714Z,14.02
2024-03-31T17:03:59.508Z,13.98
2024-03-31T17:06:27.955Z,13.95
2024-03-31T17:08:55.184Z,13.92
2024-03-31T17:11:22.141Z,13.92
2024-03-31T17:13:48.880Z,13.86
2024-03-31T17:16:15.504Z,13.91
2024-03-31T17:18:42.106Z,13.91
2024-03-31T17:21:10.780Z,14.00
2024-03-31T17:23:37.385Z,14.05
2024-03-31T17:26:04.610Z,14.10
2024-03-31T17:28:31.299Z,14.16
2024-03-31T17:31:00.830Z,14.25
2024-03-31T17:33:27.483Z,14.30
2024-03-31T17:35:58.219Z,14.37
2024-03-31T17:38:26.783Z,14.34
2024-03-31T17:41:01.919Z,14.41
2024-03-31T17:43:28.940Z,14.36
2024-03-31T17:46:26.289Z,14.47
2024-03-31T17:48:53.182Z,14.37
2024-03-31T17:51:24.744Z,14.35
2024-03-31T17:53:52.195Z,14.32
2024-03-31T17:56:19.869Z,14.30
2024-03-31T17:58:51.741Z,14.30
2024-03-31T18:01:19.820Z,14.25
2024-03-31T18:03:47.423Z,14.21
2024-03-31T18:06:14.874Z,14.21
2024-03-31T18:08:41.630Z,14.19
2024-03-31T18:11:13.206Z,14.21
2024-03-31T18:13:40.345Z,14.22
2024-03-31T18:16:10.002Z,14.22
2024-03-31T18:18:40.511Z,14.22
2024-03-31T18:21:14.152Z,14.22
2024-03-31T18:23:42.559Z,14.18
2024-03-31T18:26:10.216Z,14.17
2024-03-31T18:28:39.976Z,14.16
2024-03-31T18:31:07.683Z,14.13
2024-03-31T18:33:38.913Z,14.13
2024-03-31T18:36:15.958Z,14.15
2024-03-31T18:38:46.403Z,14.12
2024-03-31T18:41:13.291Z,14.05
2024-03-31T18:43:42.641Z,14.05
2024-03-31T18:46:10.998Z,14.06
2024-03-31T18:48:38.740Z,14.06
2024-03-31T18:51:17.553Z,14.12
2024-03-31T18:53:47.373Z,14.04
2024-03-31T18:56:18.211Z,13.94
2024-03-31T18:58:46.864Z,13.93
2024-03-31T19:01:16.111Z,13.92
2024-03-31T19:03:47.537Z,13.87
2024-03-31T19:06:14.732Z,13.87
2024-03-31T19:08:41.609Z,13.83
2024-03-31T19:11:09.285Z,13.80
2024-03-31T19:13:37.168Z,13.76
2024-03-31T19:16:05.170Z,13.76
2024-03-31T19:18:34.943Z,13.78
2024-03-31T19:21:01.694Z,13.80
2024-03-31T19:23:31.883Z,13.83
2024-03-31T19:26:03.982Z,13.79
2024-03-31T19:28:31.626Z,13.80
2024-03-31T19:30:58.574Z,13.77
2024-03-31T19:33:25.451Z,13.75
2024-03-31T19:35:52.060Z,13.71
2024-03-31T19:38:18.957Z,13.73
2024-03-31T19:40:54.575Z,13.74
2024-03-31T19:43:21.233Z,13.73
2024-03-31T19:45:47.860Z,13.69
2024-03-31T19:48:14.530Z,13.66
2024-03-31T19:50:41.167Z,13.65
2024-03-31T19:53:07.774Z,13.63
2024-03-31T19:55:34.406Z,13.61
2024-03-31T19:58:01.029Z,13.59
2024-03-31T20:00:27.722Z,13.59
2024-03-31T20:02:55.314Z,13.56
2024-03-31T20:05:21.984Z,13.56
2024-03-31T20:07:52.477Z,13.55
2024-03-31T20:10:19.122Z,13.50
2024-03-31T20:12:45.791Z,13.46
2024-03-31T20:15:12.426Z,13.49
2024-03-31T20:17:39.055Z,13.50
2024-03-31T20:20:06.787Z,13.49
2024-03-31T20:22:33.439Z,13.45
2024-03-31T20:25:00.623Z,13.46
2024-03-31T20:27:27.406Z,13.44
2024-03-31T20:29:54.378Z,13.46
2024-03-31T20:32:21.021Z,13.45
2024-03-31T20:34:47.790Z,13.45
2024-03-31T20:37:14.773Z,13.43
2024-03-31T20:39:41.837Z,13.42
2024-03-31T20:42:11.038Z,13.40
2024-03-31T20:44:37.669Z,13.38
2024-03-31T20:47:04.569Z,13.39
2024-03-31T20:49:31.208Z,13.40
2024-03-31T20:51:57.837Z,13.41
2024-03-31T20:54:24.463Z,13.42
2024-03-31T20:56:51.093Z,13.40
2024-03-31T20:59:17.667Z,13.39
2024-03-31T21:01:44.312Z,13.38
2024-03-31T21:04:11.086Z,13.36
2024-03-31T21:06:37.714Z,13.36
2024-03-31T21:09:05.619Z,13.32
2024-03-31T21:11:32.858Z,13.27
2024-03-31T21:13:59.513Z,13.25
2024-03-31T21:16:27.434Z,13.20
2024-03-31T21:18:54.433Z,13.18
2024-03-31T21:21:26.205Z,13.19
2024-03-31T21:23:52.850Z,13.11
2024-03-31T21:26:20.416Z,13.06
2024-03-31T21:28:47.848Z,13.01
2024-03-31T21:31:18.315Z,13.02
2024-03-31T21:33:46.763Z,13.01
2024-03-31T21:36:23.794Z,13.01
2024-03-31T21:38:52.190Z,13.02
2024-03-31T21:41:20.327Z,12.97
2024-03-31T21:43:48.820Z,12.91
2024-03-31T21:46:16.674Z,12.87
2024-03-31T21:48:43.637Z,12.82
2024-03-31T21:51:12.285Z,12.81
2024-03-31T21:53:40.599Z,12.82
2024-03-31T21:56:10.806Z,12.81
2024-03-31T21:58:40.212Z,12.77
2024-03-31T22:01:11.841Z,12.77
2024-03-31T22:03:40.018Z,12.70
2024-03-31T22:06:17.803Z,12.69
2024-03-31T22:08:44.480Z,12.60
2024-03-31T22:11:11.754Z,12.58
2024-03-31T22:13:38.990Z,12.58
2024-03-31T22:16:05.935Z,12.58
2024-03-31T22:18:34.463Z,12.55
2024-03-31T22:21:03.477Z,12.56
2024-03-31T22:23:30.997Z,12.49
2024-03-31T22:25:58.168Z,12.45
2024-03-31T22:28:25.657Z,12.42
2024-03-31T22:30:52.299Z,12.41
2024-03-31T22:33:19.828Z,12.37
2024-03-31T22:35:46.727Z,12.32
2024-03-31T22:38:13.743Z,12.30
2024-03-31T22:40:40.380Z,12.25
2024-03-31T22:43:07.237Z,12.21
2024-03-31T22:45:33.885Z,12.20
2024-03-31T22:48:00.500Z,12.21
2024-03-31T22:50:27.271Z,12.23
2024-03-31T22:52:53.947Z,12.22
2024-03-31T22:55:21.554Z,12.15
2024-03-31T22:57:48.346Z,12.09
2024-03-31T23:00:15.168Z,12.04
2024-03-31T23:02:41.819Z,11.97
2024-03-31T23:05:08.490Z,11.88
2024-03-31T23:07:35.223Z,11.83
2024-03-31T23:10:08.512Z,11.78
2024-03-31T23:12:35.879Z,11.77
2024-03-31T23:15:02.853Z,11.78
2024-03-31T23:17:29.623Z,11.78
2024-03-31T23:19:56.725Z,11.78
2024-03-31T23:22:23.815Z,11.74
2024-03-31T23:24:50.440Z,11.72
2024-03-31T23:27:17.070Z,11.73
2024-03-31T23:29:43.826Z,11.72
2024-03-31T23:32:10.490Z,11.74
2024-03-31T23:34:37.114Z,11.72
2024-03-31T23:37:05.985Z,11.76
2024-03-31T23:39:32.784Z,11.79
2024-03-31T23:42:00.021Z,11.81
2024-03-31T23:44:26.735Z,11.77
2024-03-31T23:46:53.499Z,11.72
2024-03-31T23:49:20.159Z,11.72
2024-03-31T23:51:46.852Z,11.70
2024-03-31T23:54:13.532Z,11.66
2024-03-31T23:56:40.135Z,11.63
2024-03-31T23:59:06.764Z,11.63
